createdAt,value
2018-09-28T00:00:26.171Z,0.00
2018-09-28T00:01:26.169Z,0.00
2018-09-28T00:02:26.164Z,0.00
2018-09-28T00:03:26.164Z,0.00
2018-09-28T00:04:26.161Z,0.00
2018-09-28T00:05:26.160Z,0.00
2018-09-28T00:06:26.158Z,0.00
2018-09-28T00:07:26.156Z,0.00
2018-09-28T00:08:26.151Z,0.00
2018-09-28T00:09:26.148Z,0.00
2018-09-28T00:10:26.146Z,0.00
2018-09-28T00:11:26.144Z,0.00
2018-09-28T00:12:26.139Z,0.00
2018-09-28T00:13:26.137Z,0.00
2018-09-28T00:14:26.136Z,0.00
2018-09-28T00:15:26.134Z,0.00
2018-09-28T00:16:26.129Z,0.00
2018-09-28T00:17:26.129Z,0.00
2018-09-28T00:18:26.122Z,0.00
2018-09-28T00:19:26.121Z,0.00
2018-09-28T00:20:26.122Z,0.00
2018-09-28T00:21:26.117Z,0.00
2018-09-28T00:22:26.114Z,0.00
2018-09-28T00:23:26.111Z,0.00
2018-09-28T00:24:26.107Z,0.00
2018-09-28T00:25:26.103Z,0.00
2018-09-28T00:26:26.111Z,0.00
2018-09-28T00:27:26.100Z,0.00
2018-09-28T00:28:26.097Z,0.00
2018-09-28T00:29:26.094Z,0.00
2018-09-28T00:30:26.092Z,0.00
2018-09-28T00:31:26.084Z,0.00
2018-09-28T00:32:26.085Z,0.00
2018-09-28T00:33:26.085Z,0.00
2018-09-28T00:34:26.081Z,0.00
2018-09-28T00:35:26.078Z,0.00
2018-09-28T00:36:26.078Z,0.00
2018-09-28T00:37:26.074Z,0.00
2018-09-28T00:38:26.078Z,0.00
2018-09-28T00:39:26.065Z,0.00
2018-09-28T00:40:26.064Z,0.00
2018-09-28T00:41:26.062Z,0.00
2018-09-28T00:42:26.062Z,0.00
2018-09-28T00:43:26.061Z,0.00
2018-09-28T00:44:26.053Z,0.00
2018-09-28T00:45:26.050Z,0.00
2018-09-28T00:46:26.049Z,0.00
2018-09-28T00:47:26.044Z,0.00
2018-09-28T00:48:26.041Z,0.00
2018-09-28T00:49:26.039Z,0.00
2018-09-28T00:50:26.039Z,0.00
2018-09-28T00:51:26.032Z,0.00
2018-09-28T00:52:26.029Z,0.00
2018-09-28T00:53:26.028Z,0.00
2018-09-28T00:54:26.023Z,0.00
2018-09-28T00:55:26.031Z,0.00
2018-09-28T00:56:26.016Z,0.00
2018-09-28T00:57:26.015Z,0.00
2018-09-28T00:58:26.010Z,0.00
2018-09-28T00:59:26.010Z,0.00
2018-09-28T01:00:26.004Z,0.00
2018-09-28T01:01:26.004Z,0.00
2018-09-28T01:02:25.999Z,0.00
2018-09-28T01:03:25.999Z,0.00
2018-09-28T01:04:25.991Z,0.00
2018-09-28T01:05:25.988Z,0.00
2018-09-28T01:06:25.987Z,0.00
2018-09-28T01:07:25.981Z,0.00
2018-09-28T01:08:25.979Z,0.00
2018-09-28T01:09:25.977Z,0.00
2018-09-28T01:10:25.973Z,0.00
2018-09-28T01:11:25.970Z,0.00
2018-09-28T01:12:25.968Z,0.00
2018-09-28T01:13:25.964Z,0.00
2018-09-28T01:14:25.960Z,0.00
2018-09-28T01:15:25.958Z,0.00
2018-09-28T01:16:25.955Z,0.00
2018-09-28T01:17:25.951Z,0.00
2018-09-28T01:18:25.949Z,0.00
2018-09-28T01:19:25.949Z,0.00
2018-09-28T01:20:25.942Z,0.00
2018-09-28T01:21:25.938Z,0.00
2018-09-28T01:22:25.935Z,0.00
2018-09-28T01:23:25.930Z,0.00
2018-09-28T01:24:25.929Z,0.00
2018-09-28T01:25:25.923Z,0.00
2018-09-28T01:26:25.921Z,0.00
2018-09-28T01:27:25.920Z,0.00
2018-09-28T01:28:25.915Z,0.00
2018-09-28T01:29:25.911Z,0.00
2018-09-28T01:30:25.908Z,0.00
2018-09-28T01:31:26.590Z,0.00
2018-09-28T01:32:25.905Z,0.00
2018-09-28T01:33:25.899Z,0.00
2018-09-28T01:34:25.896Z,0.00
2018-09-28T01:35:25.892Z,0.00
2018-09-28T01:36:25.890Z,0.00
2018-09-28T01:37:25.885Z,0.00
2018-09-28T01:38:25.883Z,0.00
2018-09-28T01:39:25.877Z,0.00
2018-09-28T01:40:25.878Z,0.00
2018-09-28T01:41:25.872Z,0.00
2018-09-28T01:42:25.870Z,0.00
2018-09-28T01:43:25.870Z,0.00
2018-09-28T01:44:25.862Z,0.00
2018-09-28T01:45:25.860Z,0.00
2018-09-28T01:46:25.860Z,0.00
2018-09-28T01:47:25.856Z,0.00
2018-09-28T01:48:25.850Z,0.00
2018-09-28T01:49:25.843Z,0.00
2018-09-28T01:50:25.841Z,0.00
2018-09-28T01:51:25.840Z,0.00
2018-09-28T01:52:25.834Z,0.00
2018-09-28T01:53:25.830Z,0.00
2018-09-28T01:54:25.830Z,0.00
2018-09-28T01:55:25.823Z,0.00
2018-09-28T01:56:25.821Z,0.00
2018-09-28T01:57:25.818Z,0.00
2018-09-28T01:58:25.814Z,0.00
2018-09-28T01:59:25.813Z,0.00
2018-09-28T02:00:25.807Z,0.00
2018-09-28T02:01:25.803Z,0.00
2018-09-28T02:02:25.801Z,0.00
2018-09-28T02:03:25.796Z,0.00
2018-09-28T02:04:25.795Z,0.00
2018-09-28T02:05:25.791Z,0.00
2018-09-28T02:06:25.787Z,0.00
2018-09-28T02:07:25.783Z,0.00
2018-09-28T02:08:25.779Z,0.00
2018-09-28T02:09:25.779Z,0.00
2018-09-28T02:10:25.776Z,0.00
2018-09-28T02:11:25.771Z,0.00
2018-09-28T02:12:25.810Z,0.00
2018-09-28T02:13:25.764Z,0.00
2018-09-28T02:14:25.759Z,0.00
2018-09-28T02:15:25.761Z,0.00
2018-09-28T02:16:25.753Z,0.00
2018-09-28T02:17:25.751Z,0.00
2018-09-28T02:18:25.745Z,0.00
2018-09-28T02:19:25.742Z,0.00
2018-09-28T02:20:25.742Z,0.00
2018-09-28T02:21:25.736Z,0.00
2018-09-28T02:22:25.735Z,0.00
2018-09-28T02:23:25.729Z,0.00
2018-09-28T02:24:25.726Z,0.00
2018-09-28T02:25:25.722Z,0.00
2018-09-28T02:26:25.724Z,0.00
2018-09-28T02:27:25.715Z,0.00
2018-09-28T02:28:25.714Z,0.00
2018-09-28T02:29:25.708Z,0.00
2018-09-28T02:30:25.703Z,0.00
2018-09-28T02:31:25.700Z,0.00
2018-09-28T02:32:25.697Z,0.00
2018-09-28T02:33:25.695Z,0.00
2018-09-28T02:34:25.694Z,0.00
2018-09-28T02:35:25.689Z,0.00
2018-09-28T02:36:25.686Z,0.00
2018-09-28T02:37:25.679Z,0.00
2018-09-28T02:38:25.676Z,0.00
2018-09-28T02:39:25.673Z,0.00
2018-09-28T02:40:25.670Z,0.00
2018-09-28T02:41:25.667Z,0.00
2018-09-28T02:42:25.663Z,0.00
2018-09-28T02:43:25.660Z,0.00
2018-09-28T02:44:25.657Z,0.00
2018-09-28T02:45:25.653Z,0.00
2018-09-28T02:46:25.651Z,0.00
2018-09-28T02:47:25.644Z,0.00
2018-09-28T02:48:25.641Z,0.00
2018-09-28T02:49:25.636Z,0.00
2018-09-28T02:50:25.633Z,0.00
2018-09-28T02:51:25.635Z,0.00
2018-09-28T02:52:25.626Z,0.00
2018-09-28T02:53:25.623Z,0.00
2018-09-28T02:54:25.618Z,0.00
2018-09-28T02:55:25.617Z,0.00
2018-09-28T02:56:25.612Z,0.00
2018-09-28T02:57:25.613Z,0.00
2018-09-28T02:58:25.605Z,0.00
2018-09-28T02:59:25.602Z,0.00
2018-09-28T03:00:25.597Z,0.00
2018-09-28T03:01:25.597Z,0.00
2018-09-28T03:02:25.593Z,0.00
2018-09-28T03:03:25.589Z,0.00
2018-09-28T03:04:25.582Z,0.00
2018-09-28T03:05:25.580Z,0.00
2018-09-28T03:06:25.672Z,0.00
2018-09-28T03:07:25.573Z,0.00
2018-09-28T03:08:25.571Z,0.00
2018-09-28T03:09:25.572Z,0.00
2018-09-28T03:10:25.563Z,0.00
2018-09-28T03:11:25.558Z,0.00
2018-09-28T03:12:25.557Z,0.00
2018-09-28T03:13:25.552Z,0.00
2018-09-28T03:14:25.548Z,0.00
2018-09-28T03:15:25.546Z,0.00
2018-09-28T03:16:25.540Z,0.00
2018-09-28T03:17:25.535Z,0.00
2018-09-28T03:18:25.534Z,0.00
2018-09-28T03:19:25.526Z,0.00
2018-09-28T03:20:25.528Z,0.00
2018-09-28T03:21:25.526Z,0.00
2018-09-28T03:22:25.519Z,0.00
2018-09-28T03:23:25.516Z,0.00
2018-09-28T03:24:25.515Z,0.00
2018-09-28T03:25:25.506Z,0.00
2018-09-28T03:26:25.503Z,0.00
2018-09-28T03:27:25.503Z,0.00
2018-09-28T03:28:25.499Z,0.00
2018-09-28T03:29:25.494Z,0.00
2018-09-28T03:30:25.489Z,0.00
2018-09-28T03:31:25.485Z,0.00
2018-09-28T03:32:25.481Z,0.00
2018-09-28T03:33:25.480Z,0.00
2018-09-28T03:34:25.473Z,0.00
2018-09-28T03:35:25.469Z,0.00
2018-09-28T03:36:25.466Z,0.00
2018-09-28T03:37:25.463Z,0.00
2018-09-28T03:38:25.468Z,0.00
2018-09-28T03:39:25.455Z,0.00
2018-09-28T03:40:25.479Z,0.00
2018-09-28T03:41:25.446Z,0.00
2018-09-28T03:42:25.444Z,0.00
2018-09-28T03:43:25.443Z,0.00
2018-09-28T03:44:25.437Z,0.00
2018-09-28T03:45:25.431Z,0.00
2018-09-28T03:46:25.429Z,0.00
2018-09-28T03:47:25.423Z,0.00
2018-09-28T03:48:25.422Z,0.00
2018-09-28T03:49:25.417Z,0.00
2018-09-28T03:50:25.416Z,0.00
2018-09-28T03:51:25.437Z,0.00
2018-09-28T03:52:25.405Z,0.00
2018-09-28T03:53:25.399Z,0.00
2018-09-28T03:54:25.399Z,0.00
2018-09-28T03:55:25.414Z,0.00
2018-09-28T03:56:25.395Z,0.00
2018-09-28T03:57:25.384Z,0.00
2018-09-28T03:58:25.383Z,0.00
2018-09-28T03:59:25.379Z,0.00
2018-09-28T04:00:25.375Z,0.00
2018-09-28T04:01:25.373Z,0.00
2018-09-28T04:02:25.366Z,0.00
2018-09-28T04:03:25.366Z,0.00
2018-09-28T04:04:25.358Z,0.00
2018-09-28T04:05:25.354Z,0.00
2018-09-28T04:06:25.352Z,0.00
2018-09-28T04:07:25.346Z,0.00
2018-09-28T04:08:25.349Z,0.00
2018-09-28T04:09:25.340Z,0.00
2018-09-28T04:10:25.335Z,0.00
2018-09-28T04:11:25.330Z,0.00
2018-09-28T04:12:25.325Z,0.00
2018-09-28T04:13:25.323Z,0.00
2018-09-28T04:14:25.320Z,0.00
2018-09-28T04:15:25.317Z,0.00
2018-09-28T04:16:25.311Z,0.00
2018-09-28T04:17:25.309Z,0.00
2018-09-28T04:18:25.304Z,0.00
2018-09-28T04:19:25.307Z,0.00
2018-09-28T04:20:25.295Z,0.00
2018-09-28T04:21:25.290Z,0.00
2018-09-28T04:22:25.290Z,0.00
2018-09-28T04:23:25.283Z,0.00
2018-09-28T04:24:25.279Z,0.00
2018-09-28T04:25:25.274Z,0.00
2018-09-28T04:26:25.272Z,0.00
2018-09-28T04:27:25.267Z,0.00
2018-09-28T04:28:25.263Z,0.00
2018-09-28T04:29:25.259Z,0.00
2018-09-28T04:30:25.252Z,4.00
2018-09-28T04:31:25.252Z,4.00
2018-09-28T04:32:25.246Z,0.00
2018-09-28T04:33:25.242Z,0.00
2018-09-28T04:34:25.240Z,0.00
2018-09-28T04:35:25.236Z,0.00
2018-09-28T04:36:25.234Z,0.00
2018-09-28T04:37:25.230Z,0.00
2018-09-28T04:38:25.223Z,4.00
2018-09-28T04:39:25.225Z,4.00
2018-09-28T04:40:25.217Z,4.00
2018-09-28T04:41:25.211Z,8.00
2018-09-28T04:42:25.206Z,8.00
2018-09-28T04:43:25.203Z,8.00
2018-09-28T04:44:25.204Z,12.00
2018-09-28T04:45:25.198Z,8.00
2018-09-28T04:46:25.190Z,12.00
2018-09-28T04:47:25.188Z,16.00
2018-09-28T04:48:25.183Z,20.00
2018-09-28T04:49:25.184Z,24.00
2018-09-28T04:50:25.175Z,32.00
2018-09-28T04:51:25.170Z,32.00
2018-09-28T04:52:25.166Z,36.00
2018-09-28T04:53:25.161Z,36.00
2018-09-28T04:54:25.160Z,40.00
2018-09-28T04:55:25.155Z,44.00
2018-09-28T04:56:25.150Z,48.00
2018-09-28T04:57:25.146Z,52.00
2018-09-28T04:58:25.142Z,56.00
2018-09-28T04:59:25.143Z,60.00
2018-09-28T05:00:25.134Z,56.00
2018-09-28T05:01:25.131Z,52.00
2018-09-28T05:02:25.127Z,52.00
2018-09-28T05:03:25.125Z,52.00
2018-09-28T05:04:25.120Z,64.00
2018-09-28T05:05:25.118Z,80.00
2018-09-28T05:06:25.110Z,88.00
2018-09-28T05:07:25.110Z,96.00
2018-09-28T05:08:25.104Z,92.00
2018-09-28T05:09:25.103Z,92.00
2018-09-28T05:10:25.101Z,100.00
2018-09-28T05:11:25.092Z,104.00
2018-09-28T05:12:25.088Z,108.00
2018-09-28T05:13:25.085Z,116.00
2018-09-28T05:14:25.087Z,128.00
2018-09-28T05:15:25.087Z,148.00
2018-09-28T05:16:25.075Z,148.00
2018-09-28T05:17:25.070Z,128.00
2018-09-28T05:18:25.066Z,100.00
2018-09-28T05:19:25.097Z,108.00
2018-09-28T05:20:25.066Z,116.00
2018-09-28T05:21:25.052Z,92.00
2018-09-28T05:22:25.051Z,76.00
2018-09-28T05:23:25.050Z,80.00
2018-09-28T05:24:25.045Z,92.00
2018-09-28T05:25:25.117Z,88.00
2018-09-28T05:26:25.086Z,84.00
2018-09-28T05:27:25.035Z,80.00
2018-09-28T05:28:25.031Z,84.00
2018-09-28T05:29:25.028Z,84.00
2018-09-28T05:30:25.023Z,88.00
2018-09-28T05:31:25.079Z,96.00
2018-09-28T05:32:25.204Z,108.00
2018-09-28T05:33:25.011Z,116.00
2018-09-28T05:34:25.008Z,132.00
2018-09-28T05:35:25.009Z,136.00
2018-09-28T05:36:24.997Z,160.00
2018-09-28T05:37:24.999Z,176.00
2018-09-28T05:38:24.993Z,172.00
2018-09-28T05:39:25.068Z,168.00
2018-09-28T05:40:24.984Z,160.00
2018-09-28T05:41:24.983Z,148.00
2018-09-28T05:42:24.979Z,156.00
2018-09-28T05:43:24.974Z,164.00
2018-09-28T05:44:24.971Z,168.00
2018-09-28T05:45:24.969Z,180.00
2018-09-28T05:46:24.974Z,196.00
2018-09-28T05:47:24.964Z,192.00
2018-09-28T05:48:24.957Z,200.00
2018-09-28T05:49:24.953Z,204.00
2018-09-28T05:50:24.954Z,212.00
2018-09-28T05:51:25.015Z,228.00
2018-09-28T05:52:24.950Z,248.00
2018-09-28T05:53:24.939Z,268.00
2018-09-28T05:54:24.938Z,288.00
2018-09-28T05:55:24.931Z,304.00
2018-09-28T05:56:24.928Z,320.00
2018-09-28T05:57:24.925Z,356.00
2018-09-28T05:58:24.987Z,408.00
2018-09-28T05:59:24.917Z,452.00
2018-09-28T06:00:24.913Z,500.00
2018-09-28T06:01:24.914Z,536.00
2018-09-28T06:02:24.908Z,524.00
2018-09-28T06:03:24.903Z,540.00
2018-09-28T06:04:24.897Z,592.00
2018-09-28T06:05:24.919Z,688.00
2018-09-28T06:06:24.894Z,808.00
2018-09-28T06:07:24.894Z,892.00
2018-09-28T06:08:24.886Z,872.00
2018-09-28T06:09:24.891Z,756.00
2018-09-28T06:10:24.877Z,708.00
2018-09-28T06:11:24.875Z,732.00
2018-09-28T06:12:24.871Z,736.00
2018-09-28T06:13:24.872Z,720.00
2018-09-28T06:14:24.865Z,772.00
2018-09-28T06:15:24.863Z,800.00
2018-09-28T06:16:24.857Z,820.00
2018-09-28T06:17:24.854Z,932.00
2018-09-28T06:18:24.898Z,1108.00
2018-09-28T06:19:24.847Z,1264.00
2018-09-28T06:20:24.843Z,1228.00
2018-09-28T06:21:24.843Z,1176.00
2018-09-28T06:22:24.839Z,1144.00
2018-09-28T06:23:24.828Z,1060.00
2018-09-28T06:24:24.825Z,1000.00
2018-09-28T06:25:24.837Z,1060.00
2018-09-28T06:26:24.823Z,1164.00
2018-09-28T06:27:24.830Z,1272.00
2018-09-28T06:28:24.816Z,1636.00
2018-09-28T06:29:24.814Z,2016.00
2018-09-28T06:30:24.809Z,2608.00
2018-09-28T06:31:24.808Z,2764.00
2018-09-28T06:32:24.801Z,2768.00
2018-09-28T06:33:24.809Z,3328.00
2018-09-28T06:34:24.796Z,3488.00
2018-09-28T06:35:24.807Z,3176.00
2018-09-28T06:36:24.788Z,3200.00
2018-09-28T06:37:24.782Z,3476.00
2018-09-28T06:38:24.783Z,4172.00
2018-09-28T06:39:24.779Z,5072.00
2018-09-28T06:40:24.777Z,5904.00
2018-09-28T06:41:24.773Z,5880.00
2018-09-28T06:42:24.778Z,5060.00
2018-09-28T06:43:24.766Z,6844.00
2018-09-28T06:44:24.763Z,4572.00
2018-09-28T06:45:24.762Z,6432.00
2018-09-28T06:46:24.758Z,5584.00
2018-09-28T06:47:24.754Z,4764.00
2018-09-28T06:48:24.818Z,4404.00
2018-09-28T06:49:24.749Z,3972.00
2018-09-28T06:50:24.745Z,4068.00
2018-09-28T06:51:24.830Z,4128.00
2018-09-28T06:52:24.740Z,3900.00
2018-09-28T06:53:24.737Z,3592.00
2018-09-28T06:54:24.735Z,3416.00
2018-09-28T06:55:25.674Z,3208.00
2018-09-28T06:56:24.730Z,3272.00
2018-09-28T06:57:24.726Z,3812.00
2018-09-28T06:58:24.728Z,4276.00
2018-09-28T06:59:24.721Z,4184.00
2018-09-28T07:00:24.752Z,4212.00
2018-09-28T07:01:24.719Z,4432.00
2018-09-28T07:02:24.713Z,4636.00
2018-09-28T07:03:24.711Z,4860.00
2018-09-28T07:04:24.707Z,4804.00
2018-09-28T07:05:24.703Z,4456.00
2018-09-28T07:06:24.704Z,3948.00
2018-09-28T07:07:24.700Z,3672.00
2018-09-28T07:08:24.692Z,3500.00
2018-09-28T07:09:24.729Z,3244.00
2018-09-28T07:10:24.691Z,3196.00
2018-09-28T07:11:24.689Z,3264.00
2018-09-28T07:12:24.686Z,3568.00
2018-09-28T07:13:24.680Z,3904.00
2018-09-28T07:14:24.680Z,3684.00
2018-09-28T07:15:24.677Z,4032.00
2018-09-28T07:16:24.717Z,4160.00
2018-09-28T07:17:24.673Z,4284.00
2018-09-28T07:18:24.749Z,3912.00
2018-09-28T07:19:24.663Z,3408.00
2018-09-28T07:20:24.664Z,3260.00
2018-09-28T07:21:24.661Z,3096.00
2018-09-28T07:22:24.781Z,3060.00
2018-09-28T07:23:24.656Z,3248.00
2018-09-28T07:24:24.735Z,3552.00
2018-09-28T07:25:24.649Z,3516.00
2018-09-28T07:26:24.649Z,3700.00
2018-09-28T07:27:24.643Z,3740.00
2018-09-28T07:28:24.665Z,3512.00
2018-09-28T07:29:24.643Z,3048.00
2018-09-28T07:30:24.722Z,2896.00
2018-09-28T07:31:24.632Z,2776.00
2018-09-28T07:32:24.632Z,2812.00
2018-09-28T07:33:24.717Z,2760.00
2018-09-28T07:34:24.626Z,2736.00
2018-09-28T07:35:24.622Z,2752.00
2018-09-28T07:36:24.740Z,2756.00
2018-09-28T07:37:24.615Z,2664.00
2018-09-28T07:38:24.610Z,2616.00
2018-09-28T07:39:24.606Z,2596.00
2018-09-28T07:40:24.607Z,2588.00
2018-09-28T07:41:24.604Z,2616.00
2018-09-28T07:42:24.627Z,2600.00
2018-09-28T07:43:24.595Z,2612.00
2018-09-28T07:44:24.594Z,2680.00
2018-09-28T07:45:24.589Z,3124.00
2018-09-28T07:46:24.587Z,4088.00
2018-09-28T07:47:24.584Z,5212.00
2018-09-28T07:48:24.581Z,5792.00
2018-09-28T07:49:24.578Z,5372.00
2018-09-28T07:50:24.575Z,4120.00
2018-09-28T07:51:24.579Z,3040.00
2018-09-28T07:52:24.568Z,2792.00
2018-09-28T07:53:24.564Z,2656.00
2018-09-28T07:54:24.586Z,2624.00
2018-09-28T07:55:24.560Z,2652.00
2018-09-28T07:56:24.562Z,2660.00
2018-09-28T07:57:24.555Z,2728.00
2018-09-28T07:58:24.550Z,2880.00
2018-09-28T07:59:24.551Z,3092.00
2018-09-28T08:00:24.543Z,3320.00
2018-09-28T08:01:24.541Z,3572.00
2018-09-28T08:02:24.541Z,3688.00
2018-09-28T08:03:24.536Z,3700.00
2018-09-28T08:04:24.537Z,3980.00
2018-09-28T08:05:24.532Z,3836.00
2018-09-28T08:06:24.525Z,3848.00
2018-09-28T08:07:24.523Z,4012.00
2018-09-28T08:08:24.518Z,3960.00
2018-09-28T08:09:24.519Z,3548.00
2018-09-28T08:10:24.516Z,3604.00
2018-09-28T08:11:24.511Z,4176.00
2018-09-28T08:12:24.506Z,4768.00
2018-09-28T08:13:24.506Z,5476.00
2018-09-28T08:14:24.500Z,5920.00
2018-09-28T08:15:24.500Z,6340.00
2018-09-28T08:16:24.493Z,6624.00
2018-09-28T08:17:24.494Z,7444.00
2018-09-28T08:18:24.489Z,7708.00
2018-09-28T08:19:24.488Z,7440.00
2018-09-28T08:20:24.481Z,6812.00
2018-09-28T08:21:24.480Z,6096.00
2018-09-28T08:22:24.475Z,5596.00
2018-09-28T08:23:24.525Z,5512.00
2018-09-28T08:24:24.522Z,6372.00
2018-09-28T08:25:24.477Z,6612.00
2018-09-28T08:26:24.468Z,6748.00
2018-09-28T08:27:24.464Z,5908.00
2018-09-28T08:28:24.461Z,5312.00
2018-09-28T08:29:24.462Z,5784.00
2018-09-28T08:30:24.486Z,6832.00
2018-09-28T08:31:24.459Z,7776.00
2018-09-28T08:32:24.457Z,8588.00
2018-09-28T08:33:24.452Z,8268.00
2018-09-28T08:34:24.450Z,7800.00
2018-09-28T08:35:24.453Z,7508.00
2018-09-28T08:36:24.466Z,7248.00
2018-09-28T08:37:24.441Z,7000.00
2018-09-28T08:38:24.440Z,6716.00
2018-09-28T08:39:24.437Z,5860.00
2018-09-28T08:40:24.433Z,4636.00
2018-09-28T08:41:24.433Z,4292.00
2018-09-28T08:42:24.433Z,4252.00
2018-09-28T08:43:24.431Z,4264.00
2018-09-28T08:44:24.421Z,4516.00
2018-09-28T08:45:24.425Z,5884.00
2018-09-28T08:46:24.425Z,6460.00
2018-09-28T08:47:24.421Z,7096.00
2018-09-28T08:48:24.416Z,7176.00
2018-09-28T08:49:24.413Z,6748.00
2018-09-28T08:50:24.411Z,6756.00
2018-09-28T08:51:24.408Z,7368.00
2018-09-28T08:52:24.403Z,7804.00
2018-09-28T08:53:24.404Z,7884.00
2018-09-28T08:54:24.405Z,6992.00
2018-09-28T08:55:24.405Z,6236.00
2018-09-28T08:56:24.398Z,5696.00
2018-09-28T08:57:24.396Z,5740.00
2018-09-28T08:58:24.394Z,6092.00
2018-09-28T08:59:24.390Z,6424.00
2018-09-28T09:00:24.397Z,6404.00
2018-09-28T09:01:24.386Z,6576.00
2018-09-28T09:02:24.386Z,6724.00
2018-09-28T09:03:24.381Z,7016.00
2018-09-28T09:04:24.380Z,7388.00
2018-09-28T09:05:24.372Z,7648.00
2018-09-28T09:06:24.384Z,7184.00
2018-09-28T09:07:24.380Z,6408.00
2018-09-28T09:08:24.372Z,5808.00
2018-09-28T09:09:24.370Z,5136.00
2018-09-28T09:10:24.368Z,4732.00
2018-09-28T09:11:24.364Z,4528.00
2018-09-28T09:12:24.363Z,4376.00
2018-09-28T09:13:24.363Z,4256.00
2018-09-28T09:14:24.356Z,4160.00
2018-09-28T09:15:24.355Z,3992.00
2018-09-28T09:16:24.355Z,4632.00
2018-09-28T09:17:24.352Z,5152.00
2018-09-28T09:18:24.383Z,5888.00
2018-09-28T09:19:24.347Z,6288.00
2018-09-28T09:20:24.343Z,6260.00
2018-09-28T09:21:24.341Z,6232.00
2018-09-28T09:22:24.337Z,6300.00
2018-09-28T09:23:24.334Z,5908.00
2018-09-28T09:24:24.332Z,4936.00
2018-09-28T09:25:24.331Z,4504.00
2018-09-28T09:26:24.328Z,3984.00
2018-09-28T09:27:24.339Z,3308.00
2018-09-28T09:28:24.324Z,2736.00
2018-09-28T09:29:24.319Z,2836.00
2018-09-28T09:30:24.345Z,2996.00
2018-09-28T09:31:24.315Z,3352.00
2018-09-28T09:32:24.313Z,3636.00
2018-09-28T09:33:24.312Z,4048.00
2018-09-28T09:34:24.376Z,4416.00
2018-09-28T09:35:24.308Z,4200.00
2018-09-28T09:36:24.347Z,4172.00
2018-09-28T09:37:24.301Z,3644.00
2018-09-28T09:38:24.295Z,3020.00
2018-09-28T09:39:24.297Z,3196.00
2018-09-28T09:40:24.294Z,3508.00
2018-09-28T09:41:24.289Z,4132.00
2018-09-28T09:42:24.291Z,3760.00
2018-09-28T09:43:24.285Z,3232.00
2018-09-28T09:44:24.281Z,3580.00
2018-09-28T09:45:24.279Z,3104.00
2018-09-28T09:46:24.280Z,2852.00
2018-09-28T09:47:24.276Z,2756.00
2018-09-28T09:48:24.332Z,2364.00
2018-09-28T09:49:24.271Z,2476.00
2018-09-28T09:50:24.267Z,2568.00
2018-09-28T09:51:24.263Z,2520.00
2018-09-28T09:52:24.264Z,2552.00
2018-09-28T09:53:24.259Z,2476.00
2018-09-28T09:54:24.255Z,2400.00
2018-09-28T09:55:24.255Z,2328.00
2018-09-28T09:56:24.800Z,2296.00
2018-09-28T09:57:24.247Z,2268.00
2018-09-28T09:58:24.245Z,2252.00
2018-09-28T09:59:24.243Z,2228.00
2018-09-28T10:00:24.239Z,2276.00
2018-09-28T10:01:24.233Z,2308.00
2018-09-28T10:02:24.237Z,2328.00
2018-09-28T10:03:24.231Z,2364.00
2018-09-28T10:04:24.228Z,2420.00
2018-09-28T10:05:24.230Z,2424.00
2018-09-28T10:06:24.227Z,2584.00
2018-09-28T10:07:24.221Z,2664.00
2018-09-28T10:08:24.215Z,2756.00
2018-09-28T10:09:24.215Z,2768.00
2018-09-28T10:10:24.210Z,2416.00
2018-09-28T10:11:24.209Z,2288.00
2018-09-28T10:12:24.301Z,2296.00
2018-09-28T10:13:24.203Z,2280.00
2018-09-28T10:14:24.203Z,2276.00
2018-09-28T10:15:24.199Z,2316.00
2018-09-28T10:16:24.201Z,2360.00
2018-09-28T10:17:24.192Z,2468.00
2018-09-28T10:18:24.191Z,2696.00
2018-09-28T10:19:24.277Z,2864.00
2018-09-28T10:20:24.184Z,3328.00
2018-09-28T10:21:24.185Z,4292.00
2018-09-28T10:22:24.180Z,5376.00
2018-09-28T10:23:24.175Z,5616.00
2018-09-28T10:24:24.177Z,5028.00
2018-09-28T10:25:24.171Z,4348.00
2018-09-28T10:26:24.807Z,3804.00
2018-09-28T10:27:24.248Z,3120.00
2018-09-28T10:28:24.171Z,3204.00
2018-09-28T10:29:24.160Z,3024.00
2018-09-28T10:30:24.158Z,2928.00
2018-09-28T10:31:24.159Z,2932.00
2018-09-28T10:32:24.153Z,3056.00
2018-09-28T10:33:24.154Z,2848.00
2018-09-28T10:34:24.220Z,2820.00
2018-09-28T10:35:24.145Z,2864.00
2018-09-28T10:36:24.144Z,2940.00
2018-09-28T10:37:24.144Z,2800.00
2018-09-28T10:38:24.137Z,2588.00
2018-09-28T10:39:24.155Z,2372.00
2018-09-28T10:40:24.163Z,2468.00
2018-09-28T10:41:24.132Z,2380.00
2018-09-28T10:42:24.130Z,2568.00
2018-09-28T10:43:24.126Z,2544.00
2018-09-28T10:44:24.123Z,2528.00
2018-09-28T10:45:24.195Z,2524.00
2018-09-28T10:46:24.180Z,2644.00
2018-09-28T10:47:24.120Z,2776.00
2018-09-28T10:48:24.118Z,2988.00
2018-09-28T10:49:24.133Z,2952.00
2018-09-28T10:50:24.112Z,2644.00
2018-09-28T10:51:24.768Z,2448.00
2018-09-28T10:52:24.462Z,2456.00
2018-09-28T10:53:24.102Z,2476.00
2018-09-28T10:54:24.102Z,2568.00
2018-09-28T10:55:24.099Z,2624.00
2018-09-28T10:56:24.095Z,2592.00
2018-09-28T10:57:24.159Z,2564.00
2018-09-28T10:58:24.144Z,2760.00
2018-09-28T10:59:24.092Z,3004.00
2018-09-28T11:00:24.122Z,3008.00
2018-09-28T11:01:24.084Z,3216.00
2018-09-28T11:02:24.084Z,3140.00
2018-09-28T11:03:24.134Z,2884.00
2018-09-28T11:04:24.203Z,2564.00
2018-09-28T11:05:24.076Z,2436.00
2018-09-28T11:06:24.074Z,2492.00
2018-09-28T11:07:24.074Z,2696.00
2018-09-28T11:08:24.129Z,2980.00
2018-09-28T11:09:24.190Z,3072.00
2018-09-28T11:10:24.189Z,3184.00
2018-09-28T11:11:24.065Z,3308.00
2018-09-28T11:12:24.062Z,3312.00
2018-09-28T11:13:24.061Z,3248.00
2018-09-28T11:14:24.060Z,3216.00
2018-09-28T11:15:24.091Z,3240.00
2018-09-28T11:16:24.055Z,3384.00
2018-09-28T11:17:24.051Z,3796.00
2018-09-28T11:18:24.052Z,3996.00
2018-09-28T11:19:24.049Z,3612.00
2018-09-28T11:20:24.046Z,3792.00
2018-09-28T11:21:24.052Z,3604.00
2018-09-28T11:22:24.043Z,3428.00
2018-09-28T11:23:24.035Z,3284.00
2018-09-28T11:24:24.040Z,3612.00
2018-09-28T11:25:24.035Z,3736.00
2018-09-28T11:26:24.040Z,4176.00
2018-09-28T11:27:24.108Z,4492.00
2018-09-28T11:28:24.033Z,4644.00
2018-09-28T11:29:24.029Z,4628.00
2018-09-28T11:30:24.028Z,4264.00
2018-09-28T11:31:24.030Z,3368.00
2018-09-28T11:32:24.023Z,3140.00
2018-09-28T11:33:24.120Z,3364.00
2018-09-28T11:34:24.020Z,3140.00
2018-09-28T11:35:24.025Z,2896.00
2018-09-28T11:36:24.016Z,3140.00
2018-09-28T11:37:24.017Z,3340.00
2018-09-28T11:38:24.013Z,3536.00
2018-09-28T11:39:24.077Z,3748.00
2018-09-28T11:40:24.005Z,4004.00
2018-09-28T11:41:24.006Z,4528.00
2018-09-28T11:42:24.003Z,4652.00
2018-09-28T11:43:24.008Z,4800.00
2018-09-28T11:44:24.003Z,4892.00
2018-09-28T11:45:24.047Z,4644.00
2018-09-28T11:46:23.998Z,4520.00
2018-09-28T11:47:23.993Z,4392.00
2018-09-28T11:48:23.993Z,4048.00
2018-09-28T11:49:23.988Z,3864.00
2018-09-28T11:50:23.991Z,4112.00
2018-09-28T11:51:24.070Z,4092.00
2018-09-28T11:52:23.985Z,4176.00
2018-09-28T11:53:23.984Z,3980.00
2018-09-28T11:54:23.985Z,3748.00
2018-09-28T11:55:23.982Z,3456.00
2018-09-28T11:56:23.982Z,3172.00
2018-09-28T11:57:24.056Z,2932.00
2018-09-28T11:58:23.978Z,2820.00
2018-09-28T11:59:23.977Z,2864.00
2018-09-28T12:00:23.975Z,3028.00
2018-09-28T12:01:23.973Z,3248.00
2018-09-28T12:02:23.972Z,3456.00
2018-09-28T12:03:24.029Z,3552.00
2018-09-28T12:04:23.965Z,3556.00
2018-09-28T12:05:23.966Z,3736.00
2018-09-28T12:06:23.993Z,3428.00
2018-09-28T12:07:23.965Z,3364.00
2018-09-28T12:08:23.960Z,3412.00
2018-09-28T12:09:24.081Z,3092.00
2018-09-28T12:10:23.957Z,3012.00
2018-09-28T12:11:23.955Z,2928.00
2018-09-28T12:12:23.997Z,2872.00
2018-09-28T12:13:23.976Z,2892.00
2018-09-28T12:14:23.955Z,2776.00
2018-09-28T12:15:24.022Z,2860.00
2018-09-28T12:16:23.945Z,2764.00
2018-09-28T12:17:23.948Z,2632.00
2018-09-28T12:18:23.994Z,2556.00
2018-09-28T12:19:23.941Z,2628.00
2018-09-28T12:20:23.941Z,2556.00
2018-09-28T12:21:24.023Z,2580.00
2018-09-28T12:22:23.937Z,2608.00
2018-09-28T12:23:23.935Z,2592.00
2018-09-28T12:24:23.969Z,2868.00
2018-09-28T12:25:23.930Z,2920.00
2018-09-28T12:26:23.927Z,2928.00
2018-09-28T12:27:24.047Z,2932.00
2018-09-28T12:28:23.921Z,2888.00
2018-09-28T12:29:23.921Z,2948.00
2018-09-28T12:30:24.037Z,2984.00
2018-09-28T12:31:23.919Z,2976.00
2018-09-28T12:32:23.915Z,2940.00
2018-09-28T12:33:23.959Z,2876.00
2018-09-28T12:34:23.914Z,2908.00
2018-09-28T12:35:24.859Z,2896.00